createdAt,value
2019-02-18T00:00:13.956Z,13.7
2019-02-18T00:01:03.699Z,13.7
2019-02-18T00:01:53.036Z,13.7
2019-02-18T00:02:43.564Z,13.7
2019-02-18T00:03:34.546Z,13.7
2019-02-18T00:04:23.441Z,13.7
2019-02-18T00:05:13.786Z,13.7
2019-02-18T00:06:04.408Z,13.7
2019-02-18T00:06:54.224Z,13.7
2019-02-18T00:07:43.938Z,13.7
2019-02-18T00:08:33.993Z,13.6
2019-02-18T00:09:23.771Z,13.7
2019-02-18T00:10:14.203Z,13.6
2019-02-18T00:11:03.960Z,13.6
2019-02-18T00:11:54.270Z,13.7
2019-02-18T00:12:44.603Z,13.7
2019-02-18T00:13:34.875Z,13.7
2019-02-18T00:14:23.794Z,13.7
2019-02-18T00:15:14.803Z,13.6
2019-02-18T00:16:04.251Z,13.7
2019-02-18T00:16:54.415Z,13.7
2019-02-18T00:17:44.877Z,13.7
2019-02-18T00:18:35.547Z,13.6
2019-02-18T00:19:24.465Z,13.7
2019-02-18T00:20:14.535Z,13.7
2019-02-18T00:21:05.737Z,13.7
2019-02-18T00:21:55.182Z,13.6
2019-02-18T00:22:45.505Z,13.7
2019-02-18T00:23:35.605Z,13.6
2019-02-18T00:24:25.407Z,13.7
2019-02-18T00:25:15.452Z,13.6
2019-02-18T00:26:04.758Z,13.6
2019-02-18T00:26:55.249Z,13.7
2019-02-18T00:27:45.944Z,13.7
2019-02-18T00:28:37.480Z,13.7
2019-02-18T00:29:24.695Z,13.6
2019-02-18T00:30:14.472Z,13.7
2019-02-18T00:31:04.784Z,13.7
2019-02-18T00:31:56.457Z,13.7
2019-02-18T00:32:46.499Z,13.7
2019-02-18T00:33:36.259Z,13.7
2019-02-18T00:34:26.314Z,13.7
2019-02-18T00:35:16.212Z,13.7
2019-02-18T00:36:07.079Z,13.6
2019-02-18T00:36:55.431Z,13.7
2019-02-18T00:37:45.746Z,13.7
2019-02-18T00:38:36.061Z,13.7
2019-02-18T00:39:25.901Z,13.7
2019-02-18T00:40:17.009Z,13.7
2019-02-18T00:41:05.991Z,13.7
2019-02-18T00:41:57.581Z,13.6
2019-02-18T00:42:46.346Z,13.7
2019-02-18T00:43:36.986Z,13.7
2019-02-18T00:44:26.593Z,13.7
2019-02-18T00:45:16.881Z,13.7
2019-02-18T00:46:06.350Z,13.6
2019-02-18T00:46:56.486Z,13.7
2019-02-18T00:47:48.889Z,13.7
2019-02-18T00:48:36.760Z,13.7
2019-02-18T00:49:26.568Z,13.7
2019-02-18T00:50:16.315Z,13.7
2019-02-18T00:51:06.348Z,13.7
2019-02-18T00:51:57.004Z,13.7
2019-02-18T00:52:47.103Z,13.6
2019-02-18T00:53:37.982Z,13.7
2019-02-18T00:54:27.990Z,13.7
2019-02-18T00:55:17.250Z,13.7
2019-02-18T00:56:06.775Z,13.7
2019-02-18T00:56:57.294Z,13.7
2019-02-18T00:57:47.465Z,13.7
2019-02-18T00:58:37.775Z,13.7
2019-02-18T00:59:27.862Z,13.7
2019-02-18T01:00:17.734Z,13.6
2019-02-18T01:01:07.347Z,13.6
2019-02-18T01:01:57.985Z,13.6
2019-02-18T01:02:47.467Z,13.7
2019-02-18T01:03:38.064Z,13.6
2019-02-18T01:04:28.434Z,13.7
2019-02-18T01:05:18.302Z,13.6
2019-02-18T01:06:07.718Z,13.7
2019-02-18T01:06:58.338Z,13.7
2019-02-18T01:07:48.389Z,13.7
2019-02-18T01:08:38.481Z,13.7
2019-02-18T01:09:28.800Z,13.6
2019-02-18T01:10:18.860Z,13.6
2019-02-18T01:11:08.125Z,13.6
2019-02-18T01:11:58.642Z,13.6
2019-02-18T01:12:48.438Z,13.6
2019-02-18T01:13:38.739Z,13.7
2019-02-18T01:14:29.085Z,13.6
2019-02-18T01:15:18.711Z,13.6
2019-02-18T01:16:09.274Z,13.6
2019-02-18T01:16:58.174Z,13.6
2019-02-18T01:17:49.062Z,13.6
2019-02-18T01:18:39.405Z,13.6
2019-02-18T01:19:29.187Z,13.6
2019-02-18T01:20:19.129Z,13.6
2019-02-18T01:21:09.067Z,13.6
2019-02-18T01:21:59.033Z,13.6
2019-02-18T01:22:50.403Z,13.6
2019-02-18T01:23:40.070Z,13.6
2019-02-18T01:24:28.741Z,13.6
2019-02-18T01:25:18.918Z,13.6
2019-02-18T01:26:09.658Z,13.6
2019-02-18T01:26:59.393Z,13.6
2019-02-18T01:27:49.568Z,13.6
2019-02-18T01:28:39.848Z,13.6
2019-02-18T01:29:29.573Z,13.6
2019-02-18T01:30:19.443Z,13.6
2019-02-18T01:31:09.528Z,13.6
2019-02-18T01:32:00.073Z,13.6
2019-02-18T01:32:50.659Z,13.6
2019-02-18T01:33:39.553Z,13.6
2019-02-18T01:34:30.783Z,13.6
2019-02-18T01:35:19.756Z,13.7
2019-02-18T01:36:10.118Z,13.6
2019-02-18T01:37:00.090Z,13.6
2019-02-18T01:37:53.763Z,13.6
2019-02-18T01:38:40.608Z,13.6
2019-02-18T01:39:30.881Z,13.6
2019-02-18T01:40:20.750Z,13.6
2019-02-18T01:41:11.265Z,13.6
2019-02-18T01:42:00.425Z,13.6
2019-02-18T01:42:51.339Z,13.6
2019-02-18T01:43:40.006Z,13.6
2019-02-18T01:44:31.226Z,13.6
2019-02-18T01:45:19.830Z,13.6
2019-02-18T01:46:11.311Z,13.6
2019-02-18T01:47:01.389Z,13.6
2019-02-18T01:47:50.851Z,13.6
2019-02-18T01:48:41.497Z,13.6
2019-02-18T01:49:30.434Z,13.6
2019-02-18T01:50:21.763Z,13.6
2019-02-18T01:51:11.077Z,13.6
2019-02-18T01:52:00.592Z,13.6
2019-02-18T01:52:51.252Z,13.6
2019-02-18T01:53:40.967Z,13.6
2019-02-18T01:54:30.485Z,13.6
2019-02-18T01:55:21.744Z,13.6
2019-02-18T01:56:12.257Z,13.6
2019-02-18T01:57:01.501Z,13.6
2019-02-18T01:57:52.350Z,13.6
2019-02-18T01:58:41.125Z,13.6
2019-02-18T01:59:31.619Z,13.6
2019-02-18T02:00:21.047Z,13.6
2019-02-18T02:01:11.858Z,13.6
2019-02-18T02:02:01.324Z,13.6
2019-02-18T02:02:51.806Z,13.6
2019-02-18T02:03:42.877Z,13.6
2019-02-18T02:04:31.546Z,13.6
2019-02-18T02:05:22.546Z,13.6
2019-02-18T02:06:11.573Z,13.6
2019-02-18T02:07:02.796Z,13.6
2019-02-18T02:08:03.575Z,13.6
2019-02-18T02:08:41.836Z,13.6
2019-02-18T02:09:31.846Z,13.6
2019-02-18T02:10:22.253Z,13.6
2019-02-18T02:11:11.979Z,13.6
2019-02-18T02:12:02.112Z,13.6
2019-02-18T02:12:53.409Z,13.6
2019-02-18T02:13:43.481Z,13.6
2019-02-18T02:14:31.990Z,13.6
2019-02-18T02:15:23.373Z,13.6
2019-02-18T02:16:13.339Z,13.6
2019-02-18T02:17:02.637Z,13.6
2019-02-18T02:17:52.918Z,13.6
2019-02-18T02:18:43.307Z,13.6
2019-02-18T02:19:33.049Z,13.6
2019-02-18T02:20:22.862Z,13.6
2019-02-18T02:21:12.720Z,13.6
2019-02-18T02:22:03.209Z,13.6
2019-02-18T02:22:53.553Z,13.6
2019-02-18T02:23:43.878Z,13.6
2019-02-18T02:24:33.407Z,13.6
2019-02-18T02:25:23.772Z,13.6
2019-02-18T02:26:14.350Z,13.6
2019-02-18T02:27:03.565Z,13.6
2019-02-18T02:27:53.910Z,13.6
2019-02-18T02:28:44.007Z,13.6
2019-02-18T02:29:33.526Z,13.6
2019-02-18T02:30:24.588Z,13.6
2019-02-18T02:31:14.322Z,13.6
2019-02-18T02:32:04.678Z,13.6
2019-02-18T02:32:54.337Z,13.6
2019-02-18T02:33:44.368Z,13.6
2019-02-18T02:34:34.460Z,13.6
2019-02-18T02:35:24.366Z,13.6
2019-02-18T02:36:14.824Z,13.6
2019-02-18T02:37:04.810Z,13.6
2019-02-18T02:37:54.500Z,13.6
2019-02-18T02:38:43.928Z,13.6
2019-02-18T02:39:35.411Z,13.6
2019-02-18T02:40:24.290Z,13.6
2019-02-18T02:41:14.902Z,13.6
2019-02-18T02:42:04.415Z,13.6
2019-02-18T02:42:55.368Z,13.6
2019-02-18T02:43:45.394Z,13.6
2019-02-18T02:44:35.713Z,13.6
2019-02-18T02:45:25.813Z,13.6
2019-02-18T02:46:15.580Z,13.6
2019-02-18T02:47:05.120Z,13.6
2019-02-18T02:47:55.014Z,13.6
2019-02-18T02:48:45.965Z,13.6
2019-02-18T02:49:35.888Z,13.6
2019-02-18T02:50:26.103Z,13.6
2019-02-18T02:51:16.508Z,13.6
2019-02-18T02:52:05.884Z,13.6
2019-02-18T02:52:55.253Z,13.6
2019-02-18T02:53:46.208Z,13.6
2019-02-18T02:54:35.113Z,13.6
2019-02-18T02:55:25.558Z,13.6
2019-02-18T02:56:15.728Z,13.6
2019-02-18T02:57:05.124Z,13.6
2019-02-18T02:57:55.232Z,13.6
2019-02-18T02:58:45.260Z,13.6
2019-02-18T02:59:35.115Z,13.6
2019-02-18T03:00:25.555Z,13.6
2019-02-18T03:01:17.152Z,13.6
2019-02-18T03:02:05.582Z,13.6
2019-02-18T03:02:56.182Z,13.6
2019-02-18T03:03:45.962Z,13.6
2019-02-18T03:04:35.261Z,13.6
2019-02-18T03:08:21.981Z,13.6
2019-02-18T03:08:58.084Z,13.6
2019-02-18T03:09:48.557Z,13.6
2019-02-18T03:10:38.377Z,13.6
2019-02-18T03:11:28.394Z,13.6
2019-02-18T03:12:18.495Z,13.6
2019-02-18T03:13:08.523Z,13.6
2019-02-18T03:13:58.579Z,13.6
2019-02-18T03:14:48.382Z,13.5
2019-02-18T03:15:39.040Z,13.6
2019-02-18T03:16:27.993Z,13.5
2019-02-18T03:17:18.401Z,13.6
2019-02-18T03:18:09.761Z,13.6
2019-02-18T03:18:59.224Z,13.6
2019-02-18T03:19:49.468Z,13.6
2019-02-18T03:20:39.570Z,13.6
2019-02-18T03:21:29.390Z,13.6
2019-02-18T03:22:19.056Z,13.6
2019-02-18T03:23:09.229Z,13.6
2019-02-18T03:23:59.914Z,13.6
2019-02-18T03:24:48.813Z,13.6
2019-02-18T03:25:39.865Z,13.6
2019-02-18T03:26:29.943Z,13.6
2019-02-18T03:27:19.533Z,13.6
2019-02-18T03:28:08.938Z,13.6
2019-02-18T03:29:00.619Z,13.6
2019-02-18T03:29:51.035Z,13.6
2019-02-18T03:30:40.522Z,13.6
2019-02-18T03:31:30.535Z,13.6
2019-02-18T03:32:20.044Z,13.6
2019-02-18T03:33:11.497Z,13.6
2019-02-18T03:34:01.192Z,13.6
2019-02-18T03:34:50.035Z,13.6
2019-02-18T03:35:41.420Z,13.6
2019-02-18T03:36:30.617Z,13.6
2019-02-18T03:37:20.732Z,13.6
2019-02-18T03:38:11.408Z,13.6
2019-02-18T03:39:01.391Z,13.6
2019-02-18T03:39:51.468Z,13.6
2019-02-18T03:40:41.474Z,13.6
2019-02-18T03:41:31.495Z,13.6
2019-02-18T03:42:21.051Z,13.6
2019-02-18T03:43:11.042Z,13.6
2019-02-18T03:44:01.162Z,13.5
2019-02-18T03:44:51.477Z,13.6
2019-02-18T03:45:41.030Z,13.6
2019-02-18T03:46:31.962Z,13.6
2019-02-18T03:47:20.357Z,13.6
2019-02-18T03:48:11.798Z,13.6
2019-02-18T03:49:01.497Z,13.6
2019-02-18T03:49:51.919Z,13.6
2019-02-18T03:50:41.814Z,13.6
2019-02-18T03:51:31.963Z,13.6
2019-02-18T03:52:22.280Z,13.6
2019-02-18T03:53:12.104Z,13.5
2019-02-18T03:54:02.084Z,13.5
2019-02-18T03:54:52.197Z,13.6
2019-02-18T03:55:42.020Z,13.6
2019-02-18T03:56:32.053Z,13.6
2019-02-18T03:57:22.089Z,13.6
2019-02-18T03:58:12.142Z,13.6
2019-02-18T03:59:02.000Z,13.6
2019-02-18T03:59:52.299Z,13.6
2019-02-18T04:00:42.104Z,13.6
2019-02-18T04:01:32.939Z,13.6
2019-02-18T04:02:22.156Z,13.6
2019-02-18T04:03:12.209Z,13.6
2019-02-18T04:04:02.606Z,13.6
2019-02-18T04:04:53.149Z,13.6
2019-02-18T04:05:42.673Z,13.6
2019-02-18T04:06:32.018Z,13.6
2019-02-18T04:07:23.355Z,13.6
2019-02-18T04:08:13.061Z,13.6
2019-02-18T04:09:03.481Z,13.6
2019-02-18T04:09:52.921Z,13.6
2019-02-18T04:10:43.048Z,13.6
2019-02-18T04:11:33.473Z,13.6
2019-02-18T04:12:22.558Z,13.6
2019-02-18T04:13:14.325Z,13.6
2019-02-18T04:14:03.868Z,13.6
2019-02-18T04:14:54.173Z,13.6
2019-02-18T04:15:43.593Z,13.6
2019-02-18T04:16:33.638Z,13.6
2019-02-18T04:17:23.196Z,13.6
2019-02-18T04:18:13.842Z,13.6
2019-02-18T04:19:03.872Z,13.6
2019-02-18T04:19:55.499Z,13.6
2019-02-18T04:20:43.791Z,13.6
2019-02-18T04:21:33.582Z,13.6
2019-02-18T04:22:23.826Z,13.6
2019-02-18T04:23:13.884Z,13.6
2019-02-18T04:24:03.621Z,13.5
2019-02-18T04:24:54.255Z,13.5
2019-02-18T04:25:44.488Z,13.6
2019-02-18T04:26:34.765Z,13.5
2019-02-18T04:27:24.397Z,13.5
2019-02-18T04:28:14.168Z,13.5
2019-02-18T04:29:04.249Z,13.5
2019-02-18T04:29:54.548Z,13.5
2019-02-18T04:30:44.404Z,13.5
2019-02-18T04:31:34.854Z,13.5
2019-02-18T04:32:25.019Z,13.5
2019-02-18T04:33:15.169Z,13.5
2019-02-18T04:34:04.871Z,13.5
2019-02-18T04:34:54.902Z,13.5
2019-02-18T04:35:45.006Z,13.5
2019-02-18T04:36:35.592Z,13.5
2019-02-18T04:37:25.391Z,13.5
2019-02-18T04:38:14.612Z,13.5
2019-02-18T04:39:04.917Z,13.5
2019-02-18T04:39:55.162Z,13.5
2019-02-18T04:40:45.089Z,13.5
2019-02-18T04:41:35.701Z,13.5
2019-02-18T04:42:25.989Z,13.5
2019-02-18T04:43:16.297Z,13.5
2019-02-18T04:44:05.649Z,13.5
2019-02-18T04:44:55.096Z,13.5
2019-02-18T04:45:45.221Z,13.5
2019-02-18T04:46:36.647Z,13.5
2019-02-18T04:47:25.882Z,13.5
2019-02-18T04:48:16.483Z,13.5
2019-02-18T04:49:06.565Z,13.5
2019-02-18T04:49:56.751Z,13.5
2019-02-18T04:50:46.604Z,13.5
2019-02-18T04:51:36.117Z,13.5
2019-02-18T04:52:26.163Z,13.5
2019-02-18T04:53:16.185Z,13.5
2019-02-18T04:54:06.270Z,13.5
2019-02-18T04:54:56.342Z,13.5
2019-02-18T04:55:45.780Z,13.5
2019-02-18T04:56:36.788Z,13.5
2019-02-18T04:57:27.128Z,13.5
2019-02-18T04:58:16.860Z,13.5
2019-02-18T04:59:06.383Z,13.5
2019-02-18T04:59:56.978Z,13.5
2019-02-18T05:00:45.959Z,13.5
2019-02-18T05:01:37.651Z,13.4
2019-02-18T05:02:26.862Z,13.5
2019-02-18T05:03:17.180Z,13.5
2019-02-18T05:04:06.580Z,13.5
2019-02-18T05:04:57.356Z,13.5
2019-02-18T05:05:47.366Z,13.5
2019-02-18T05:06:37.230Z,13.5
2019-02-18T05:07:27.750Z,13.5
2019-02-18T05:08:17.825Z,13.5
2019-02-18T05:09:13.614Z,13.5
2019-02-18T05:09:57.655Z,13.5
2019-02-18T05:10:48.275Z,13.5
2019-02-18T05:11:37.759Z,13.5
2019-02-18T05:12:27.522Z,13.5
2019-02-18T05:13:17.647Z,13.5
2019-02-18T05:14:07.204Z,13.5
2019-02-18T05:14:57.974Z,13.5
2019-02-18T05:15:48.711Z,13.5
2019-02-18T05:16:37.882Z,13.5
2019-02-18T05:17:27.585Z,13.4
2019-02-18T05:18:17.343Z,13.5
2019-02-18T05:19:08.023Z,13.4
2019-02-18T05:19:58.093Z,13.5
2019-02-18T05:20:47.928Z,13.4
2019-02-18T05:21:38.207Z,13.4
2019-02-18T05:22:27.970Z,13.4
2019-02-18T05:23:18.618Z,13.4
2019-02-18T05:24:07.677Z,13.4
2019-02-18T05:24:58.413Z,13.4
2019-02-18T05:25:48.255Z,13.5
2019-02-18T05:26:38.274Z,13.4
2019-02-18T05:27:40.377Z,13.5
2019-02-18T05:28:19.240Z,13.4
2019-02-18T05:29:08.758Z,13.4
2019-02-18T05:29:58.478Z,13.5
2019-02-18T05:30:48.335Z,13.5
2019-02-18T05:31:39.494Z,13.4
2019-02-18T05:32:29.034Z,13.5
2019-02-18T05:33:19.567Z,13.4
2019-02-18T05:34:09.226Z,13.4
2019-02-18T05:34:58.512Z,13.4
2019-02-18T05:35:48.848Z,13.5
2019-02-18T05:36:39.489Z,13.4
2019-02-18T05:37:28.606Z,13.4
2019-02-18T05:38:19.026Z,13.4
2019-02-18T05:39:21.320Z,13.4
2019-02-18T05:40:01.555Z,13.4
2019-02-18T05:40:49.638Z,13.4
2019-02-18T05:41:38.892Z,13.4
2019-02-18T05:42:29.544Z,13.5
2019-02-18T05:43:19.310Z,13.5
2019-02-18T05:44:09.021Z,13.5
2019-02-18T05:45:00.335Z,13.4
2019-02-18T05:45:49.921Z,13.4
2019-02-18T05:46:39.394Z,13.4
2019-02-18T05:47:29.323Z,13.4
2019-02-18T05:48:20.136Z,13.4
2019-02-18T05:49:09.051Z,13.4
2019-02-18T05:50:00.959Z,13.4
2019-02-18T05:50:49.965Z,13.4
2019-02-18T05:51:40.529Z,13.4
2019-02-18T05:52:30.131Z,13.4
2019-02-18T05:53:19.686Z,13.4
2019-02-18T05:54:10.441Z,13.4
2019-02-18T05:55:00.932Z,13.4
2019-02-18T05:55:50.320Z,13.4
2019-02-18T05:56:40.918Z,13.4
2019-02-18T05:57:31.515Z,13.4
2019-02-18T05:58:21.015Z,13.4
2019-02-18T05:59:10.828Z,13.4
2019-02-18T06:00:00.841Z,13.4
2019-02-18T06:00:50.473Z,13.4
2019-02-18T06:01:40.658Z,13.4
2019-02-18T06:02:31.455Z,13.4
2019-02-18T06:03:20.245Z,13.4
2019-02-18T06:06:08.662Z,13.4
2019-02-18T06:06:59.848Z,13.4
2019-02-18T06:07:49.730Z,13.4
2019-02-18T06:08:38.335Z,13.4
2019-02-18T06:09:38.070Z,13.4
2019-02-18T06:10:23.692Z,13.4
2019-02-18T06:11:08.418Z,13.4
2019-02-18T06:11:58.886Z,13.4
2019-02-18T06:12:48.769Z,13.4
2019-02-18T06:13:39.049Z,13.4
2019-02-18T06:14:29.756Z,13.4
2019-02-18T06:15:19.273Z,13.4
2019-02-18T06:16:09.689Z,13.4
2019-02-18T06:17:03.209Z,13.4
2019-02-18T06:17:50.601Z,13.4
2019-02-18T06:18:40.354Z,13.4
2019-02-18T06:19:29.664Z,13.4
2019-02-18T06:20:19.460Z,13.4
2019-02-18T06:21:09.722Z,13.4
2019-02-18T06:21:59.579Z,13.4
2019-02-18T06:22:50.427Z,13.4
2019-02-18T06:23:54.834Z,13.4
2019-02-18T06:24:30.126Z,13.4
2019-02-18T06:25:35.566Z,13.4
2019-02-18T06:26:11.130Z,13.4
2019-02-18T06:27:00.910Z,13.4
2019-02-18T06:27:53.016Z,13.4
2019-02-18T06:28:40.842Z,13.4
2019-02-18T06:29:31.185Z,13.4
2019-02-18T06:30:20.116Z,13.4
2019-02-18T06:31:11.321Z,13.4
2019-02-18T06:32:00.221Z,13.4
2019-02-18T06:32:51.228Z,13.4
2019-02-18T06:33:40.591Z,13.4
2019-02-18T06:34:31.556Z,13.4
2019-02-18T06:35:20.827Z,13.4
2019-02-18T06:36:10.775Z,13.4
2019-02-18T06:37:00.976Z,13.4
2019-02-18T06:37:51.129Z,13.4
2019-02-18T06:38:40.857Z,13.4
2019-02-18T06:39:43.988Z,13.4
2019-02-18T06:40:21.429Z,13.4
2019-02-18T06:41:10.511Z,13.4
2019-02-18T06:42:01.407Z,13.4
2019-02-18T06:42:50.980Z,13.5
2019-02-18T06:43:42.092Z,13.4
2019-02-18T06:44:30.782Z,13.4
2019-02-18T06:45:21.687Z,13.5
2019-02-18T06:46:11.447Z,13.4
2019-02-18T06:47:02.548Z,13.4
2019-02-18T06:48:41.870Z,13.4
2019-02-18T06:49:32.012Z,13.5
2019-02-18T06:50:21.537Z,13.5
2019-02-18T06:51:11.957Z,13.5
2019-02-18T06:52:17.054Z,13.5
2019-02-18T06:52:51.584Z,13.5
2019-02-18T06:53:42.750Z,13.5
2019-02-18T06:54:47.507Z,13.5
2019-02-18T06:55:22.072Z,13.5
2019-02-18T06:56:12.089Z,13.5
2019-02-18T06:57:02.804Z,13.5
2019-02-18T06:57:52.794Z,13.5
2019-02-18T06:58:41.739Z,13.5
2019-02-18T06:59:32.622Z,13.5
2019-02-18T07:00:23.116Z,13.5
2019-02-18T07:01:12.758Z,13.5
2019-02-18T07:02:02.057Z,13.5
2019-02-18T07:02:53.846Z,13.5
2019-02-18T07:03:42.093Z,13.5
2019-02-18T07:06:08.631Z,13.5
2019-02-18T07:06:59.526Z,13.5
2019-02-18T07:07:47.979Z,13.5
2019-02-18T07:08:38.720Z,13.5
2019-02-18T07:09:28.634Z,13.5
2019-02-18T07:10:17.566Z,13.5
2019-02-18T07:11:09.889Z,13.5
2019-02-18T07:11:58.531Z,13.6
2019-02-18T07:12:49.668Z,13.5
2019-02-18T07:13:40.169Z,13.5
2019-02-18T07:14:29.276Z,13.5
2019-02-18T07:15:18.998Z,13.6
2019-02-18T07:16:09.933Z,13.5
2019-02-18T07:17:00.256Z,13.6
2019-02-18T07:17:49.443Z,13.5
2019-02-18T07:18:39.829Z,13.5
2019-02-18T07:20:01.729Z,13.6
2019-02-18T07:20:20.223Z,13.6
2019-02-18T07:21:08.285Z,13.6
2019-02-18T07:22:00.308Z,13.6
2019-02-18T07:22:50.883Z,13.6
2019-02-18T07:23:39.867Z,13.6
2019-02-18T07:24:30.018Z,13.6
2019-02-18T07:25:20.541Z,13.6
2019-02-18T07:26:10.033Z,13.6
2019-02-18T07:27:00.252Z,13.6
2019-02-18T07:27:50.685Z,13.6
2019-02-18T07:28:39.403Z,13.6
2019-02-18T07:29:30.272Z,13.6
2019-02-18T07:30:19.797Z,13.6
2019-02-18T07:31:10.698Z,13.6
2019-02-18T07:32:01.072Z,13.6
2019-02-18T07:32:50.710Z,13.6
2019-02-18T07:33:40.025Z,13.6
2019-02-18T07:34:31.367Z,13.6
2019-02-18T07:35:21.289Z,13.6
2019-02-18T07:36:11.377Z,13.6
2019-02-18T07:37:01.423Z,13.6
2019-02-18T07:38:05.050Z,13.6
2019-02-18T07:38:40.669Z,13.6
2019-02-18T07:39:29.904Z,13.6
2019-02-18T07:40:20.644Z,13.6
2019-02-18T07:41:11.592Z,13.6
2019-02-18T07:42:00.835Z,13.6
2019-02-18T07:42:51.768Z,13.6
2019-02-18T07:43:41.303Z,13.6
2019-02-18T07:44:31.311Z,13.6
2019-02-18T07:45:21.911Z,13.6
2019-02-18T07:46:11.634Z,13.7
2019-02-18T07:47:02.079Z,13.7
2019-02-18T07:47:51.523Z,13.8
2019-02-18T07:48:44.277Z,13.8
2019-02-18T07:49:31.396Z,13.9
2019-02-18T07:50:28.751Z,13.9
2019-02-18T07:51:15.500Z,14
2019-02-18T07:52:02.099Z,14
2019-02-18T07:52:51.323Z,14.1
2019-02-18T07:53:41.456Z,14.1
2019-02-18T07:54:32.290Z,14.1
2019-02-18T07:55:22.038Z,14.1
2019-02-18T07:56:12.463Z,14.2
2019-02-18T07:57:01.853Z,14.2
2019-02-18T07:57:52.513Z,14.2
2019-02-18T07:58:42.295Z,14.3
2019-02-18T07:59:31.555Z,14.2
2019-02-18T08:00:22.665Z,14.3
2019-02-18T08:01:12.805Z,14.3
2019-02-18T08:02:03.100Z,14.3
2019-02-18T08:02:52.901Z,14.3
2019-02-18T08:03:42.089Z,14.3
2019-02-18T08:04:32.385Z,14.3
2019-02-18T08:05:22.798Z,14.3
2019-02-18T08:06:12.243Z,14.3
2019-02-18T08:07:01.778Z,14.3
2019-02-18T08:07:53.467Z,14.3
2019-02-18T08:08:42.542Z,14.3
2019-02-18T08:09:32.471Z,14.3
2019-02-18T08:10:23.357Z,14.3
2019-02-18T08:11:12.153Z,14.3
2019-02-18T08:12:02.876Z,14.3
2019-02-18T08:12:52.127Z,14.4
2019-02-18T08:13:43.732Z,14.4
2019-02-18T08:14:33.420Z,14.4
2019-02-18T08:15:23.459Z,14.4
2019-02-18T08:16:12.105Z,14.4
2019-02-18T08:17:03.647Z,14.4
2019-02-18T08:17:53.109Z,14.4
2019-02-18T08:18:42.932Z,14.4
2019-02-18T08:19:34.009Z,14.4
2019-02-18T08:20:23.554Z,14.4
2019-02-18T08:21:13.044Z,14.4
2019-02-18T08:22:02.868Z,14.5
2019-02-18T08:22:54.032Z,14.4
2019-02-18T08:23:44.287Z,14.4
2019-02-18T08:24:33.341Z,14.4
2019-02-18T08:25:23.402Z,14.4
2019-02-18T08:26:13.276Z,14.5
2019-02-18T08:27:04.413Z,14.5
2019-02-18T08:27:53.334Z,14.5
2019-02-18T08:28:44.779Z,14.5
2019-02-18T08:29:34.203Z,14.6
2019-02-18T08:30:23.775Z,14.6
2019-02-18T08:31:13.959Z,14.6
2019-02-18T08:32:04.858Z,14.6
2019-02-18T08:32:54.618Z,14.6
2019-02-18T08:33:45.000Z,14.6
2019-02-18T08:34:35.013Z,14.6
2019-02-18T08:35:24.591Z,14.6
2019-02-18T08:36:14.598Z,14.6
2019-02-18T08:37:04.941Z,14.6
2019-02-18T08:37:55.705Z,14.6
2019-02-18T08:38:45.263Z,14.6
2019-02-18T08:39:35.710Z,14.6
2019-02-18T08:40:30.883Z,14.7
2019-02-18T08:41:14.483Z,14.7
2019-02-18T08:42:05.070Z,14.7
2019-02-18T08:42:55.171Z,14.7
2019-02-18T08:43:44.590Z,14.7
2019-02-18T08:44:35.431Z,14.7
2019-02-18T08:45:25.864Z,14.7
2019-02-18T08:46:15.576Z,14.7
2019-02-18T08:47:04.811Z,14.8
2019-02-18T08:47:55.136Z,14.8
2019-02-18T08:48:46.318Z,14.8
2019-02-18T08:49:36.150Z,14.8
2019-02-18T08:50:25.570Z,14.8
2019-02-18T08:51:15.438Z,14.8
2019-02-18T08:52:04.635Z,14.8
2019-02-18T08:52:55.185Z,14.8
2019-02-18T08:53:48.440Z,14.8
2019-02-18T08:54:35.188Z,14.8
2019-02-18T08:55:25.815Z,14.8
2019-02-18T08:56:17.063Z,14.8
2019-02-18T08:57:05.203Z,14.8
2019-02-18T08:57:56.337Z,14.8
2019-02-18T08:58:46.210Z,14.8
2019-02-18T08:59:36.771Z,14.8
2019-02-18T09:00:26.811Z,14.8
2019-02-18T09:01:16.880Z,14.9
2019-02-18T09:02:07.251Z,14.9
2019-02-18T09:02:57.578Z,14.8
2019-02-18T09:03:46.530Z,14.8
2019-02-18T09:04:37.119Z,14.9
2019-02-18T09:05:27.961Z,14.9
2019-02-18T09:06:16.640Z,14.9
2019-02-18T09:07:07.928Z,14.9
2019-02-18T09:07:56.581Z,14.9
2019-02-18T09:08:47.216Z,14.9
2019-02-18T09:09:37.427Z,14.9
2019-02-18T09:10:39.260Z,14.9
2019-02-18T09:11:18.169Z,14.9
2019-02-18T09:12:07.884Z,14.9
2019-02-18T09:12:57.446Z,14.9
2019-02-18T09:13:48.151Z,14.9
2019-02-18T09:14:37.233Z,14.9
2019-02-18T09:15:28.137Z,14.9
2019-02-18T09:16:18.173Z,14.9
2019-02-18T09:17:07.250Z,14.9
2019-02-18T09:17:58.170Z,14.9
2019-02-18T09:18:47.789Z,15
2019-02-18T09:19:37.949Z,15
2019-02-18T09:20:31.348Z,15
2019-02-18T09:21:17.465Z,15
2019-02-18T09:22:08.303Z,15.1
2019-02-18T09:22:57.633Z,15
2019-02-18T09:23:48.762Z,15.1
2019-02-18T09:24:38.460Z,15
2019-02-18T09:25:28.860Z,15.1
2019-02-18T09:26:17.902Z,15
2019-02-18T09:27:07.452Z,15
2019-02-18T09:27:58.065Z,15
2019-02-18T09:28:47.773Z,15
2019-02-18T09:29:37.809Z,15.1
2019-02-18T09:30:27.929Z,15.1
2019-02-18T09:31:18.002Z,15.1
2019-02-18T09:32:07.747Z,15.1
2019-02-18T09:32:57.310Z,15.1
2019-02-18T09:33:47.330Z,15.1
2019-02-18T09:34:38.252Z,15.1
2019-02-18T09:35:28.814Z,15.1
2019-02-18T09:36:18.578Z,15.1
2019-02-18T09:37:08.486Z,15.1
2019-02-18T09:37:58.278Z,15.1
2019-02-18T09:38:49.340Z,15.1
2019-02-18T09:39:39.250Z,15.1
2019-02-18T09:40:27.834Z,15.1
2019-02-18T09:41:18.622Z,15.1
2019-02-18T09:42:09.567Z,15.2
2019-02-18T09:42:58.557Z,15.2
2019-02-18T09:43:48.849Z,15.1
2019-02-18T09:44:38.552Z,15.1
2019-02-18T09:45:29.529Z,15.1
2019-02-18T09:46:19.777Z,15.2
2019-02-18T09:47:09.534Z,15.2
2019-02-18T09:48:01.301Z,15.2
2019-02-18T09:48:49.412Z,15.2
2019-02-18T09:49:40.036Z,15.2
2019-02-18T09:50:30.268Z,15.2
2019-02-18T09:51:20.456Z,15.2
2019-02-18T09:52:10.034Z,15.3
2019-02-18T09:53:02.238Z,15.3
2019-02-18T09:53:50.836Z,15.3
2019-02-18T09:54:39.604Z,15.3
2019-02-18T09:55:29.838Z,15.3
2019-02-18T09:56:20.241Z,15.3
2019-02-18T09:57:11.010Z,15.2
2019-02-18T09:58:00.296Z,15.3
2019-02-18T09:58:53.101Z,15.3
2019-02-18T09:59:41.465Z,15.3
2019-02-18T10:00:30.274Z,15.3
2019-02-18T10:01:20.806Z,15.3
2019-02-18T10:02:11.088Z,15.3
2019-02-18T10:03:00.840Z,15.3
2019-02-18T10:03:50.128Z,15.3
2019-02-18T10:04:41.341Z,15.3
2019-02-18T10:07:09.067Z,15.3
2019-02-18T10:07:58.289Z,15.3
2019-02-18T10:08:48.931Z,15.3
2019-02-18T10:09:37.842Z,15.3
2019-02-18T10:10:29.630Z,15.3
2019-02-18T10:11:18.775Z,15.3
2019-02-18T10:12:20.095Z,15.3
2019-02-18T10:13:01.936Z,15.3
2019-02-18T10:13:48.395Z,15.3
2019-02-18T10:14:39.322Z,15.3
2019-02-18T10:15:29.740Z,15.3
2019-02-18T10:16:19.469Z,15.3
2019-02-18T10:17:09.737Z,15.3
2019-02-18T10:17:59.547Z,15.3
2019-02-18T10:18:49.008Z,15.4
2019-02-18T10:19:38.859Z,15.4
2019-02-18T10:20:29.967Z,15.4
2019-02-18T10:21:19.889Z,15.3
2019-02-18T10:22:09.257Z,15.4
2019-02-18T10:22:59.674Z,15.4
2019-02-18T10:23:50.189Z,15.4
2019-02-18T10:24:52.207Z,15.4
2019-02-18T10:25:30.344Z,15.4
2019-02-18T10:26:19.559Z,15.4
2019-02-18T10:27:09.528Z,15.4
2019-02-18T10:28:00.442Z,15.4
2019-02-18T10:28:50.544Z,15.4
2019-02-18T10:29:40.294Z,15.4
2019-02-18T10:30:30.137Z,15.4
2019-02-18T10:31:19.621Z,15.4
2019-02-18T10:32:10.498Z,15.4
2019-02-18T10:33:00.005Z,15.4
2019-02-18T10:33:48.414Z,15.4
2019-02-18T10:34:39.326Z,15.4
2019-02-18T10:35:32.971Z,15.4
2019-02-18T10:36:20.474Z,15.4
2019-02-18T10:37:11.101Z,15.4
2019-02-18T10:38:03.799Z,15.4
2019-02-18T10:38:50.706Z,15.5
2019-02-18T10:39:40.784Z,15.4
2019-02-18T10:40:30.258Z,15.5
2019-02-18T10:41:23.343Z,15.4
2019-02-18T10:42:09.816Z,15.5
2019-02-18T10:43:01.332Z,15.5
2019-02-18T10:43:51.020Z,15.5
2019-02-18T10:44:41.190Z,15.5
2019-02-18T10:45:32.123Z,15.5
2019-02-18T10:46:21.626Z,15.5
2019-02-18T10:47:12.766Z,15.5
2019-02-18T10:48:01.981Z,15.5
2019-02-18T10:48:51.729Z,15.5
2019-02-18T10:49:41.496Z,15.5
2019-02-18T10:50:34.240Z,15.5
2019-02-18T10:51:21.797Z,15.6
2019-02-18T10:52:12.161Z,15.6
2019-02-18T10:53:02.350Z,15.6
2019-02-18T10:53:52.572Z,15.5
2019-02-18T10:54:42.022Z,15.6
2019-02-18T10:55:33.242Z,15.6
2019-02-18T10:56:24.622Z,15.6
2019-02-18T10:57:12.567Z,15.6
2019-02-18T10:58:01.875Z,15.6
2019-02-18T10:58:51.579Z,15.6
2019-02-18T10:59:43.132Z,15.6
2019-02-18T11:00:32.272Z,15.6
2019-02-18T11:01:22.032Z,15.6
2019-02-18T11:02:12.789Z,15.6
2019-02-18T11:03:02.123Z,15.6
2019-02-18T11:03:52.864Z,15.6
2019-02-18T11:04:42.000Z,15.6
2019-02-18T11:05:35.050Z,15.6
2019-02-18T11:06:22.714Z,15.6
2019-02-18T11:07:12.155Z,15.6
2019-02-18T11:08:02.567Z,15.6
2019-02-18T11:08:53.049Z,15.6
2019-02-18T11:09:42.854Z,15.6
2019-02-18T11:10:32.905Z,15.6
2019-02-18T11:11:25.191Z,15.6
2019-02-18T11:12:12.856Z,15.6
2019-02-18T11:13:05.716Z,15.6
2019-02-18T11:13:53.356Z,15.6
2019-02-18T11:14:42.439Z,15.6
2019-02-18T11:15:32.774Z,15.6